sensor_id;sensor_type;location;lat;lon;timestamp;temperature;humidity
44747;DHT22;30472;49.490;10.972;2022-07-29T00:01:49;20.40;99.90
44747;DHT22;30472;49.490;10.972;2022-07-29T00:04:17;20.40;99.90
44747;DHT22;30472;49.490;10.972;2022-07-29T00:06:43;20.40;99.90
44747;DHT22;30472;49.490;10.972;2022-07-29T00:09:08;20.50;99.90
44747;DHT22;30472;49.490;10.972;2022-07-29T00:11:34;20.40;99.90
44747;DHT22;30472;49.490;10.972;2022-07-29T00:14:00;20.50;99.90
44747;DHT22;30472;49.490;10.972;2022-07-29T00:16:25;20.40;99.90
44747;DHT22;30472;49.490;10.972;2022-07-29T00:18:51;20.40;99.90
44747;DHT22;30472;49.490;10.972;2022-07-29T00:21:16;20.40;99.90
44747;DHT22;30472;49.490;10.972;2022-07-29T00:23:42;20.40;99.90
44747;DHT22;30472;49.490;10.972;2022-07-29T00:26:08;20.40;99.90
44747;DHT22;30472;49.490;10.972;2022-07-29T00:28:33;20.40;99.90
44747;DHT22;30472;49.490;10.972;2022-07-29T00:30:59;20.40;99.90
44747;DHT22;30472;49.490;10.972;2022-07-29T00:33:24;20.50;99.90
44747;DHT22;30472;49.490;10.972;2022-07-29T00:35:50;20.50;99.90
44747;DHT22;30472;49.490;10.972;2022-07-29T00:38:18;20.50;99.90
44747;DHT22;30472;49.490;10.972;2022-07-29T00:40:44;20.50;99.90
44747;DHT22;30472;49.490;10.972;2022-07-29T00:43:11;20.50;99.90
44747;DHT22;30472;49.490;10.972;2022-07-29T00:45:37;20.50;99.90
44747;DHT22;30472;49.490;10.972;2022-07-29T00:48:03;20.50;99.90
44747;DHT22;30472;49.490;10.972;2022-07-29T00:50:31;20.50;99.90
44747;DHT22;30472;49.490;10.972;2022-07-29T00:52:57;20.50;99.90
44747;DHT22;30472;49.490;10.972;2022-07-29T00:55:23;20.50;99.90
44747;DHT22;30472;49.490;10.972;2022-07-29T00:57:49;20.50;99.90
44747;DHT22;30472;49.490;10.972;2022-07-29T01:00:20;20.40;99.90
44747;DHT22;30472;49.490;10.972;2022-07-29T01:02:46;20.40;99.90
44747;DHT22;30472;49.490;10.972;2022-07-29T01:05:15;20.40;99.90
44747;DHT22;30472;49.490;10.972;2022-07-29T01:07:42;20.30;99.90
44747;DHT22;30472;49.490;10.972;2022-07-29T01:10:09;20.30;99.90
44747;DHT22;30472;49.490;10.972;2022-07-29T01:12:36;20.20;99.90
44747;DHT22;30472;49.490;10.972;2022-07-29T01:15:05;20.20;99.90
44747;DHT22;30472;49.490;10.972;2022-07-29T01:28:40;20.00;99.90
44747;DHT22;30472;49.490;10.972;2022-07-29T01:31:10;20.00;99.90
44747;DHT22;30472;49.490;10.972;2022-07-29T01:33:41;20.00;99.90
44747;DHT22;30472;49.490;10.972;2022-07-29T01:36:22;19.90;99.90
44747;DHT22;30472;49.490;10.972;2022-07-29T01:38:54;19.90;99.90
44747;DHT22;30472;49.490;10.972;2022-07-29T01:41:25;19.80;99.90
44747;DHT22;30472;49.490;10.972;2022-07-29T01:43:58;19.80;99.90
44747;DHT22;30472;49.490;10.972;2022-07-29T01:46:30;19.80;99.90
44747;DHT22;30472;49.490;10.972;2022-07-29T01:49:07;19.60;99.90
44747;DHT22;30472;49.490;10.972;2022-07-29T01:51:41;19.60;99.90
44747;DHT22;30472;49.490;10.972;2022-07-29T01:54:15;19.50;99.90
44747;DHT22;30472;49.490;10.972;2022-07-29T01:56:43;19.30;99.90
44747;DHT22;30472;49.490;10.972;2022-07-29T01:59:10;19.20;99.90
44747;DHT22;30472;49.490;10.972;2022-07-29T02:01:38;19.40;99.90
44747;DHT22;30472;49.490;10.972;2022-07-29T02:04:06;19.40;99.90
44747;DHT22;30472;49.490;10.972;2022-07-29T02:06:36;19.40;99.90
44747;DHT22;30472;49.490;10.972;2022-07-29T02:09:03;19.40;99.90
44747;DHT22;30472;49.490;10.972;2022-07-29T02:11:31;19.40;99.90
44747;DHT22;30472;49.490;10.972;2022-07-29T02:13:58;19.30;99.90
44747;DHT22;30472;49.490;10.972;2022-07-29T02:16:27;19.20;99.90
44747;DHT22;30472;49.490;10.972;2022-07-29T02:18:54;19.20;99.90
44747;DHT22;30472;49.490;10.972;2022-07-29T02:21:24;19.10;99.90
44747;DHT22;30472;49.490;10.972;2022-07-29T02:23:51;19.00;99.90
44747;DHT22;30472;49.490;10.972;2022-07-29T02:26:20;19.00;99.90
44747;DHT22;30472;49.490;10.972;2022-07-29T02:28:48;19.00;99.90
44747;DHT22;30472;49.490;10.972;2022-07-29T02:31:16;19.10;99.90
44747;DHT22;30472;49.490;10.972;2022-07-29T02:33:46;19.00;99.90
44747;DHT22;30472;49.490;10.972;2022-07-29T02:36:13;19.00;99.90
44747;DHT22;30472;49.490;10.972;2022-07-29T02:38:40;19.00;99.90
44747;DHT22;30472;49.490;10.972;2022-07-29T02:41:20;19.00;99.90
44747;DHT22;30472;49.490;10.972;2022-07-29T02:43:50;18.90;99.90
44747;DHT22;30472;49.490;10.972;2022-07-29T02:46:23;19.00;99.90
44747;DHT22;30472;49.490;10.972;2022-07-29T02:48:57;18.90;99.90
44747;DHT22;30472;49.490;10.972;2022-07-29T02:51:46;18.90;99.90
44747;DHT22;30472;49.490;10.972;2022-07-29T02:54:34;18.80;99.90
44747;DHT22;30472;49.490;10.972;2022-07-29T02:57:03;18.70;99.90
44747;DHT22;30472;49.490;10.972;2022-07-29T02:59:30;18.60;99.90
44747;DHT22;30472;49.490;10.972;2022-07-29T03:01:59;18.60;99.90
44747;DHT22;30472;49.490;10.972;2022-07-29T03:04:26;18.50;99.90
44747;DHT22;30472;49.490;10.972;2022-07-29T03:06:53;18.40;99.90
44747;DHT22;30472;49.490;10.972;2022-07-29T03:09:20;18.30;99.90
44747;DHT22;30472;49.490;10.972;2022-07-29T03:11:47;18.30;99.90
44747;DHT22;30472;49.490;10.972;2022-07-29T03:14:13;18.20;99.90
44747;DHT22;30472;49.490;10.972;2022-07-29T03:16:39;18.20;99.90
44747;DHT22;30472;49.490;10.972;2022-07-29T03:19:05;18.30;99.90
44747;DHT22;30472;49.490;10.972;2022-07-29T03:21:31;18.30;99.90
44747;DHT22;30472;49.490;10.972;2022-07-29T03:23:57;18.30;99.90
44747;DHT22;30472;49.490;10.972;2022-07-29T03:26:22;18.30;99.90
44747;DHT22;30472;49.490;10.972;2022-07-29T03:28:48;18.30;99.90
44747;DHT22;30472;49.490;10.972;2022-07-29T03:31:14;18.30;99.90
44747;DHT22;30472;49.490;10.972;2022-07-29T03:33:39;18.30;99.90
44747;DHT22;30472;49.490;10.972;2022-07-29T03:36:05;18.20;99.90
44747;DHT22;30472;49.490;10.972;2022-07-29T03:38:33;18.20;99.90
44747;DHT22;30472;49.490;10.972;2022-07-29T03:41:09;18.20;99.90
44747;DHT22;30472;49.490;10.972;2022-07-29T03:43:38;18.20;99.90
44747;DHT22;30472;49.490;10.972;2022-07-29T03:46:06;18.20;99.90
44747;DHT22;30472;49.490;10.972;2022-07-29T03:48:34;18.20;99.90
44747;DHT22;30472;49.490;10.972;2022-07-29T03:51:02;18.20;99.90
44747;DHT22;30472;49.490;10.972;2022-07-29T03:53:28;18.10;99.90
44747;DHT22;30472;49.490;10.972;2022-07-29T03:55:56;18.10;99.90
44747;DHT22;30472;49.490;10.972;2022-07-29T03:58:26;18.10;99.90
44747;DHT22;30472;49.490;10.972;2022-07-29T04:00:53;18.10;99.90
44747;DHT22;30472;49.490;10.972;2022-07-29T04:03:19;18.10;99.90
44747;DHT22;30472;49.490;10.972;2022-07-29T04:05:58;18.00;99.90
44747;DHT22;30472;49.490;10.972;2022-07-29T04:08:24;18.00;99.90
44747;DHT22;30472;49.490;10.972;2022-07-29T04:10:49;18.00;99.90
44747;DHT22;30472;49.490;10.972;2022-07-29T04:13:15;17.90;99.90
44747;DHT22;30472;49.490;10.972;2022-07-29T04:15:40;17.90;99.90
44747;DHT22;30472;49.490;10.972;2022-07-29T04:18:06;17.90;99.90
44747;DHT22;30472;49.490;10.972;2022-07-29T04:20:31;17.80;99.90
44747;DHT22;30472;49.490;10.972;2022-07-29T04:22:57;17.70;99.90
44747;DHT22;30472;49.490;10.972;2022-07-29T04:25:22;17.70;99.90
44747;DHT22;30472;49.490;10.972;2022-07-29T04:27:48;17.60;99.90
44747;DHT22;30472;49.490;10.972;2022-07-29T04:30:25;17.60;99.90
44747;DHT22;30472;49.490;10.972;2022-07-29T04:32:51;17.50;99.90
44747;DHT22;30472;49.490;10.972;2022-07-29T04:35:18;17.50;99.90
44747;DHT22;30472;49.490;10.972;2022-07-29T04:37:43;17.40;99.90
44747;DHT22;30472;49.490;10.972;2022-07-29T04:40:09;17.40;99.90
44747;DHT22;30472;49.490;10.972;2022-07-29T04:42:35;17.40;99.90
44747;DHT22;30472;49.490;10.972;2022-07-29T04:45:01;17.40;99.90
44747;DHT22;30472;49.490;10.972;2022-07-29T04:47:26;17.40;99.90
44747;DHT22;30472;49.490;10.972;2022-07-29T04:49:52;17.40;99.90
44747;DHT22;30472;49.490;10.972;2022-07-29T04:52:17;17.40;99.90
44747;DHT22;30472;49.490;10.972;2022-07-29T04:54:43;17.40;99.90
44747;DHT22;30472;49.490;10.972;2022-07-29T04:57:08;17.40;99.90
44747;DHT22;30472;49.490;10.972;2022-07-29T04:59:34;17.40;99.90
44747;DHT22;30472;49.490;10.972;2022-07-29T05:01:59;17.40;99.90
44747;DHT22;30472;49.490;10.972;2022-07-29T05:04:25;17.40;99.90
44747;DHT22;30472;49.490;10.972;2022-07-29T05:06:50;17.40;99.90
44747;DHT22;30472;49.490;10.972;2022-07-29T05:09:16;17.40;99.90
44747;DHT22;30472;49.490;10.972;2022-07-29T05:11:42;17.50;99.90
44747;DHT22;30472;49.490;10.972;2022-07-29T05:14:07;17.50;99.90
44747;DHT22;30472;49.490;10.972;2022-07-29T05:16:33;17.50;99.90
44747;DHT22;30472;49.490;10.972;2022-07-29T05:18:58;17.60;99.90
44747;DHT22;30472;49.490;10.972;2022-07-29T05:21:24;17.70;99.90
44747;DHT22;30472;49.490;10.972;2022-07-29T05:23:49;17.80;99.90
44747;DHT22;30472;49.490;10.972;2022-07-29T05:26:15;17.80;99.90
44747;DHT22;30472;49.490;10.972;2022-07-29T05:28:41;17.90;99.90
44747;DHT22;30472;49.490;10.972;2022-07-29T05:31:06;17.90;99.90
44747;DHT22;30472;49.490;10.972;2022-07-29T05:33:32;17.90;99.90
44747;DHT22;30472;49.490;10.972;2022-07-29T05:35:58;17.90;99.90
44747;DHT22;30472;49.490;10.972;2022-07-29T05:38:23;18.00;99.90
44747;DHT22;30472;49.490;10.972;2022-07-29T05:40:49;18.00;99.90
44747;DHT22;30472;49.490;10.972;2022-07-29T05:43:14;18.10;99.90
44747;DHT22;30472;49.490;10.972;2022-07-29T05:45:40;18.20;99.90
44747;DHT22;30472;49.490;10.972;2022-07-29T05:48:05;18.30;99.90
44747;DHT22;30472;49.490;10.972;2022-07-29T05:50:31;18.50;99.90
44747;DHT22;30472;49.490;10.972;2022-07-29T05:52:56;18.60;99.90
44747;DHT22;30472;49.490;10.972;2022-07-29T05:55:22;18.80;99.90
44747;DHT22;30472;49.490;10.972;2022-07-29T05:57:47;19.00;99.90
44747;DHT22;30472;49.490;10.972;2022-07-29T06:00:13;19.20;99.90
44747;DHT22;30472;49.490;10.972;2022-07-29T06:02:39;19.40;99.90
44747;DHT22;30472;49.490;10.972;2022-07-29T06:05:04;19.60;99.90
44747;DHT22;30472;49.490;10.972;2022-07-29T06:07:30;19.70;99.90
44747;DHT22;30472;49.490;10.972;2022-07-29T06:09:57;19.90;99.90
44747;DHT22;30472;49.490;10.972;2022-07-29T06:12:23;19.90;99.90
44747;DHT22;30472;49.490;10.972;2022-07-29T06:14:48;20.10;99.90
44747;DHT22;30472;49.490;10.972;2022-07-29T06:17:16;20.20;99.90
44747;DHT22;30472;49.490;10.972;2022-07-29T06:19:41;20.40;99.90
44747;DHT22;30472;49.490;10.972;2022-07-29T06:22:07;20.60;99.90
44747;DHT22;30472;49.490;10.972;2022-07-29T06:24:33;20.80;99.90
44747;DHT22;30472;49.490;10.972;2022-07-29T06:26:58;21.00;99.90
44747;DHT22;30472;49.490;10.972;2022-07-29T06:29:24;21.20;99.90
44747;DHT22;30472;49.490;10.972;2022-07-29T06:31:50;21.50;99.90
44747;DHT22;30472;49.490;10.972;2022-07-29T06:34:15;21.70;99.90
44747;DHT22;30472;49.490;10.972;2022-07-29T06:36:41;22.00;99.90
44747;DHT22;30472;49.490;10.972;2022-07-29T06:39:07;22.50;99.90
44747;DHT22;30472;49.490;10.972;2022-07-29T06:41:33;23.30;99.90
44747;DHT22;30472;49.490;10.972;2022-07-29T06:43:59;24.30;99.90
44747;DHT22;30472;49.490;10.972;2022-07-29T06:46:25;24.90;99.90
44747;DHT22;30472;49.490;10.972;2022-07-29T06:48:51;25.30;99.90
44747;DHT22;30472;49.490;10.972;2022-07-29T06:51:18;26.10;99.90
44747;DHT22;30472;49.490;10.972;2022-07-29T06:53:43;26.70;99.90
44747;DHT22;30472;49.490;10.972;2022-07-29T06:56:09;27.10;99.90
44747;DHT22;30472;49.490;10.972;2022-07-29T06:58:35;27.60;99.90
44747;DHT22;30472;49.490;10.972;2022-07-29T07:01:03;28.00;99.90
44747;DHT22;30472;49.490;10.972;2022-07-29T07:03:29;27.90;99.60
44747;DHT22;30472;49.490;10.972;2022-07-29T07:05:55;27.90;99.90
44747;DHT22;30472;49.490;10.972;2022-07-29T07:08:21;28.20;99.00
44747;DHT22;30472;49.490;10.972;2022-07-29T07:10:48;28.30;99.00
44747;DHT22;30472;49.490;10.972;2022-07-29T07:13:14;28.60;98.80
44747;DHT22;30472;49.490;10.972;2022-07-29T07:15:40;28.80;98.70
44747;DHT22;30472;49.490;10.972;2022-07-29T07:18:06;28.70;98.30
44747;DHT22;30472;49.490;10.972;2022-07-29T07:20:33;29.10;98.80
44747;DHT22;30472;49.490;10.972;2022-07-29T07:22:58;28.80;98.10
44747;DHT22;30472;49.490;10.972;2022-07-29T07:25:24;28.80;97.60
44747;DHT22;30472;49.490;10.972;2022-07-29T07:27:50;28.60;98.20
44747;DHT22;30472;49.490;10.972;2022-07-29T07:30:16;29.00;98.90
44747;DHT22;30472;49.490;10.972;2022-07-29T07:32:42;29.30;97.70
44747;DHT22;30472;49.490;10.972;2022-07-29T07:35:08;29.70;98.00
44747;DHT22;30472;49.490;10.972;2022-07-29T07:37:34;30.30;98.40
44747;DHT22;30472;49.490;10.972;2022-07-29T07:40:01;29.30;97.60
44747;DHT22;30472;49.490;10.972;2022-07-29T07:42:27;28.90;98.20
44747;DHT22;30472;49.490;10.972;2022-07-29T07:44:52;28.60;99.10
44747;DHT22;30472;49.490;10.972;2022-07-29T07:47:18;28.30;99.30
44747;DHT22;30472;49.490;10.972;2022-07-29T07:49:49;28.20;99.20
44747;DHT22;30472;49.490;10.972;2022-07-29T07:52:19;28.80;99.70
44747;DHT22;30472;49.490;10.972;2022-07-29T07:54:45;29.30;99.90
44747;DHT22;30472;49.490;10.972;2022-07-29T07:57:12;29.20;98.80
44747;DHT22;30472;49.490;10.972;2022-07-29T07:59:38;28.80;98.00
44747;DHT22;30472;49.490;10.972;2022-07-29T08:02:05;28.90;98.10
44747;DHT22;30472;49.490;10.972;2022-07-29T08:04:30;28.70;98.30
44747;DHT22;30472;49.490;10.972;2022-07-29T08:06:57;28.70;99.30
44747;DHT22;30472;49.490;10.972;2022-07-29T08:09:25;28.60;98.80
44747;DHT22;30472;49.490;10.972;2022-07-29T08:11:51;28.50;98.80
44747;DHT22;30472;49.490;10.972;2022-07-29T08:14:17;28.70;98.20
44747;DHT22;30472;49.490;10.972;2022-07-29T08:16:42;28.60;98.30
44747;DHT22;30472;49.490;10.972;2022-07-29T08:19:08;29.00;97.70
44747;DHT22;30472;49.490;10.972;2022-07-29T08:21:34;29.50;97.30
44747;DHT22;30472;49.490;10.972;2022-07-29T08:23:59;29.90;97.50
44747;DHT22;30472;49.490;10.972;2022-07-29T08:26:44;29.30;96.50
44747;DHT22;30472;49.490;10.972;2022-07-29T08:29:10;29.40;97.50
44747;DHT22;30472;49.490;10.972;2022-07-29T08:31:36;29.20;97.90
44747;DHT22;30472;49.490;10.972;2022-07-29T08:34:03;29.80;99.30
44747;DHT22;30472;49.490;10.972;2022-07-29T08:36:29;30.70;99.90
44747;DHT22;30472;49.490;10.972;2022-07-29T08:38:55;31.30;95.90
44747;DHT22;30472;49.490;10.972;2022-07-29T08:41:20;32.50;97.90
44747;DHT22;30472;49.490;10.972;2022-07-29T08:43:48;33.00;95.20
44747;DHT22;30472;49.490;10.972;2022-07-29T08:46:14;33.10;93.30
44747;DHT22;30472;49.490;10.972;2022-07-29T08:48:41;32.60;92.60
44747;DHT22;30472;49.490;10.972;2022-07-29T08:51:07;33.70;92.90
44747;DHT22;30472;49.490;10.972;2022-07-29T08:53:33;34.30;93.10
44747;DHT22;30472;49.490;10.972;2022-07-29T08:55:59;34.80;92.80
44747;DHT22;30472;49.490;10.972;2022-07-29T08:58:26;34.60;91.50
44747;DHT22;30472;49.490;10.972;2022-07-29T09:00:56;34.00;91.40
44747;DHT22;30472;49.490;10.972;2022-07-29T09:03:24;33.50;92.10
44747;DHT22;30472;49.490;10.972;2022-07-29T09:05:51;32.80;93.90
44747;DHT22;30472;49.490;10.972;2022-07-29T09:08:17;32.20;92.60
44747;DHT22;30472;49.490;10.972;2022-07-29T09:10:43;32.10;92.70
44747;DHT22;30472;49.490;10.972;2022-07-29T09:13:10;31.30;92.50
44747;DHT22;30472;49.490;10.972;2022-07-29T09:15:35;31.70;93.30
44747;DHT22;30472;49.490;10.972;2022-07-29T09:18:01;32.20;92.80
44747;DHT22;30472;49.490;10.972;2022-07-29T09:20:27;32.00;92.50
44747;DHT22;30472;49.490;10.972;2022-07-29T09:23:13;32.90;92.30
44747;DHT22;30472;49.490;10.972;2022-07-29T09:25:40;33.60;91.30
44747;DHT22;30472;49.490;10.972;2022-07-29T09:28:07;33.70;91.10
44747;DHT22;30472;49.490;10.972;2022-07-29T09:30:33;33.40;91.00
44747;DHT22;30472;49.490;10.972;2022-07-29T09:33:01;33.10;92.10
44747;DHT22;30472;49.490;10.972;2022-07-29T09:35:27;32.60;91.40
44747;DHT22;30472;49.490;10.972;2022-07-29T09:37:53;32.50;91.50
44747;DHT22;30472;49.490;10.972;2022-07-29T09:40:21;32.20;92.40
44747;DHT22;30472;49.490;10.972;2022-07-29T09:42:48;31.80;92.50
44747;DHT22;30472;49.490;10.972;2022-07-29T09:45:30;31.40;93.20
44747;DHT22;30472;49.490;10.972;2022-07-29T09:47:57;31.40;92.40
44747;DHT22;30472;49.490;10.972;2022-07-29T09:50:42;31.20;92.10
44747;DHT22;30472;49.490;10.972;2022-07-29T09:53:09;31.10;93.40
44747;DHT22;30472;49.490;10.972;2022-07-29T09:55:51;31.30;93.50
44747;DHT22;30472;49.490;10.972;2022-07-29T09:58:21;30.80;92.20
44747;DHT22;30472;49.490;10.972;2022-07-29T10:00:49;30.70;92.60
44747;DHT22;30472;49.490;10.972;2022-07-29T10:03:16;30.40;92.50
44747;DHT22;30472;49.490;10.972;2022-07-29T10:05:42;30.00;92.80
44747;DHT22;30472;49.490;10.972;2022-07-29T10:08:09;30.20;92.50
44747;DHT22;30472;49.490;10.972;2022-07-29T10:10:38;30.00;93.40
44747;DHT22;30472;49.490;10.972;2022-07-29T10:13:13;29.70;92.50
44747;DHT22;30472;49.490;10.972;2022-07-29T10:15:41;29.60;93.30
44747;DHT22;30472;49.490;10.972;2022-07-29T10:18:09;29.80;92.60
44747;DHT22;30472;49.490;10.972;2022-07-29T10:20:36;30.00;93.60
44747;DHT22;30472;49.490;10.972;2022-07-29T10:23:02;30.20;93.50
44747;DHT22;30472;49.490;10.972;2022-07-29T10:25:28;31.00;93.30
44747;DHT22;30472;49.490;10.972;2022-07-29T10:27:55;31.10;91.70
44747;DHT22;30472;49.490;10.972;2022-07-29T10:30:22;31.10;90.90
44747;DHT22;30472;49.490;10.972;2022-07-29T10:44:22;31.30;90.50
44747;DHT22;30472;49.490;10.972;2022-07-29T10:46:48;31.60;91.60
44747;DHT22;30472;49.490;10.972;2022-07-29T10:49:17;31.80;90.50
44747;DHT22;30472;49.490;10.972;2022-07-29T10:51:59;32.10;90.70
44747;DHT22;30472;49.490;10.972;2022-07-29T10:54:45;32.60;90.20
44747;DHT22;30472;49.490;10.972;2022-07-29T10:57:21;32.80;90.10
44747;DHT22;30472;49.490;10.972;2022-07-29T11:07:36;32.80;88.70
44747;DHT22;30472;49.490;10.972;2022-07-29T11:15:07;32.00;88.70
44747;DHT22;30472;49.490;10.972;2022-07-29T11:20:44;32.20;88.70
44747;DHT22;30472;49.490;10.972;2022-07-29T11:23:28;32.50;90.80
44747;DHT22;30472;49.490;10.972;2022-07-29T11:28:42;32.70;89.40
44747;DHT22;30472;49.490;10.972;2022-07-29T11:31:13;32.40;87.70
44747;DHT22;30472;49.490;10.972;2022-07-29T11:33:41;32.40;88.70
44747;DHT22;30472;49.490;10.972;2022-07-29T11:36:14;32.30;88.20
44747;DHT22;30472;49.490;10.972;2022-07-29T11:38:40;32.20;91.90
44747;DHT22;30472;49.490;10.972;2022-07-29T11:41:26;32.40;88.50
44747;DHT22;30472;49.490;10.972;2022-07-29T11:43:59;32.20;90.70
44747;DHT22;30472;49.490;10.972;2022-07-29T11:46:44;32.40;89.20
44747;DHT22;30472;49.490;10.972;2022-07-29T11:49:22;32.80;90.30
44747;DHT22;30472;49.490;10.972;2022-07-29T11:51:56;33.40;91.30
44747;DHT22;30472;49.490;10.972;2022-07-29T11:54:34;33.20;85.90
44747;DHT22;30472;49.490;10.972;2022-07-29T11:57:00;33.20;89.40
44747;DHT22;30472;49.490;10.972;2022-07-29T11:59:26;33.40;90.00
44747;DHT22;30472;49.490;10.972;2022-07-29T12:01:59;33.10;86.70
44747;DHT22;30472;49.490;10.972;2022-07-29T12:04:25;32.00;86.40
44747;DHT22;30472;49.490;10.972;2022-07-29T12:06:55;31.40;89.30
44747;DHT22;30472;49.490;10.972;2022-07-29T12:09:22;31.30;88.80
44747;DHT22;30472;49.490;10.972;2022-07-29T12:11:48;31.50;88.10
44747;DHT22;30472;49.490;10.972;2022-07-29T12:14:30;31.90;88.10
44747;DHT22;30472;49.490;10.972;2022-07-29T12:16:58;32.00;89.70
44747;DHT22;30472;49.490;10.972;2022-07-29T12:19:23;32.50;87.10
44747;DHT22;30472;49.490;10.972;2022-07-29T12:21:55;32.10;86.50
44747;DHT22;30472;49.490;10.972;2022-07-29T12:24:23;31.30;88.30
44747;DHT22;30472;49.490;10.972;2022-07-29T12:26:57;30.90;89.50
44747;DHT22;30472;49.490;10.972;2022-07-29T12:29:23;31.30;90.20
44747;DHT22;30472;49.490;10.972;2022-07-29T12:31:53;32.00;89.40
44747;DHT22;30472;49.490;10.972;2022-07-29T12:34:22;32.10;90.00
44747;DHT22;30472;49.490;10.972;2022-07-29T12:36:48;32.60;89.40
44747;DHT22;30472;49.490;10.972;2022-07-29T12:39:16;33.00;87.70
44747;DHT22;30472;49.490;10.972;2022-07-29T12:41:43;32.50;87.10
44747;DHT22;30472;49.490;10.972;2022-07-29T12:44:09;32.60;88.70
44747;DHT22;30472;49.490;10.972;2022-07-29T12:46:35;32.10;88.60
44747;DHT22;30472;49.490;10.972;2022-07-29T12:49:00;31.70;88.20
44747;DHT22;30472;49.490;10.972;2022-07-29T12:51:39;31.60;89.20
44747;DHT22;30472;49.490;10.972;2022-07-29T12:54:11;31.70;89.40
44747;DHT22;30472;49.490;10.972;2022-07-29T12:56:38;31.60;89.50
44747;DHT22;30472;49.490;10.972;2022-07-29T13:01:38;31.30;89.80
44747;DHT22;30472;49.490;10.972;2022-07-29T13:04:04;31.40;90.00
44747;DHT22;30472;49.490;10.972;2022-07-29T13:09:16;31.40;90.40
44747;DHT22;30472;49.490;10.972;2022-07-29T13:11:43;31.30;88.40
44747;DHT22;30472;49.490;10.972;2022-07-29T13:14:11;31.60;87.20
44747;DHT22;30472;49.490;10.972;2022-07-29T13:17:01;32.40;86.40
44747;DHT22;30472;49.490;10.972;2022-07-29T13:22:07;33.00;88.10
44747;DHT22;30472;49.490;10.972;2022-07-29T13:24:33;32.70;87.20
44747;DHT22;30472;49.490;10.972;2022-07-29T13:26:59;32.30;86.50
44747;DHT22;30472;49.490;10.972;2022-07-29T13:29:25;32.10;86.50
44747;DHT22;30472;49.490;10.972;2022-07-29T13:31:52;31.80;87.60
44747;DHT22;30472;49.490;10.972;2022-07-29T13:34:17;31.40;88.70
44747;DHT22;30472;49.490;10.972;2022-07-29T13:36:44;31.40;87.70
44747;DHT22;30472;49.490;10.972;2022-07-29T13:39:10;31.10;87.30
44747;DHT22;30472;49.490;10.972;2022-07-29T13:41:36;30.90;87.80
44747;DHT22;30472;49.490;10.972;2022-07-29T13:44:02;30.80;89.10
44747;DHT22;30472;49.490;10.972;2022-07-29T13:46:27;30.50;90.10
44747;DHT22;30472;49.490;10.972;2022-07-29T13:48:53;30.20;90.30
44747;DHT22;30472;49.490;10.972;2022-07-29T13:51:18;30.00;90.30
44747;DHT22;30472;49.490;10.972;2022-07-29T13:53:44;29.50;91.60
44747;DHT22;30472;49.490;10.972;2022-07-29T13:56:10;28.80;92.40
44747;DHT22;30472;49.490;10.972;2022-07-29T13:58:35;28.30;93.30
44747;DHT22;30472;49.490;10.972;2022-07-29T14:01:01;27.90;94.20
44747;DHT22;30472;49.490;10.972;2022-07-29T14:03:27;27.50;94.90
44747;DHT22;30472;49.490;10.972;2022-07-29T14:05:53;27.10;95.50
44747;DHT22;30472;49.490;10.972;2022-07-29T14:08:18;27.10;95.30
44747;DHT22;30472;49.490;10.972;2022-07-29T14:10:44;27.00;95.50
44747;DHT22;30472;49.490;10.972;2022-07-29T14:13:09;27.00;95.40
44747;DHT22;30472;49.490;10.972;2022-07-29T14:15:35;26.90;95.50
44747;DHT22;30472;49.490;10.972;2022-07-29T14:18:01;26.80;94.90
44747;DHT22;30472;49.490;10.972;2022-07-29T14:20:27;26.80;96.00
44747;DHT22;30472;49.490;10.972;2022-07-29T14:22:55;26.60;97.50
44747;DHT22;30472;49.490;10.972;2022-07-29T14:25:20;26.40;98.60
44747;DHT22;30472;49.490;10.972;2022-07-29T14:27:46;26.10;99.10
44747;DHT22;30472;49.490;10.972;2022-07-29T14:30:12;25.90;98.10
44747;DHT22;30472;49.490;10.972;2022-07-29T14:32:37;25.80;98.70
44747;DHT22;30472;49.490;10.972;2022-07-29T14:35:04;25.80;98.60
44747;DHT22;30472;49.490;10.972;2022-07-29T14:37:29;25.80;98.20
44747;DHT22;30472;49.490;10.972;2022-07-29T14:39:55;25.70;97.90
44747;DHT22;30472;49.490;10.972;2022-07-29T14:42:24;25.70;98.40
44747;DHT22;30472;49.490;10.972;2022-07-29T14:44:50;25.60;99.00
44747;DHT22;30472;49.490;10.972;2022-07-29T14:47:15;25.60;98.30
44747;DHT22;30472;49.490;10.972;2022-07-29T14:49:41;25.60;98.50
44747;DHT22;30472;49.490;10.972;2022-07-29T14:52:07;25.60;98.70
44747;DHT22;30472;49.490;10.972;2022-07-29T14:54:32;25.60;99.50
44747;DHT22;30472;49.490;10.972;2022-07-29T14:56:58;25.40;99.90
44747;DHT22;30472;49.490;10.972;2022-07-29T14:59:24;25.30;99.90
44747;DHT22;30472;49.490;10.972;2022-07-29T15:01:49;25.10;99.90
44747;DHT22;30472;49.490;10.972;2022-07-29T15:04:15;24.90;99.90
44747;DHT22;30472;49.490;10.972;2022-07-29T15:06:41;24.60;99.90
44747;DHT22;30472;49.490;10.972;2022-07-29T15:09:06;24.60;99.90
44747;DHT22;30472;49.490;10.972;2022-07-29T15:11:32;24.50;99.90
44747;DHT22;30472;49.490;10.972;2022-07-29T15:13:57;24.30;99.90
44747;DHT22;30472;49.490;10.972;2022-07-29T15:16:23;24.10;99.90
44747;DHT22;30472;49.490;10.972;2022-07-29T15:18:49;24.00;99.90
44747;DHT22;30472;49.490;10.972;2022-07-29T15:21:15;23.80;99.90
44747;DHT22;30472;49.490;10.972;2022-07-29T15:23:40;23.70;99.90
44747;DHT22;30472;49.490;10.972;2022-07-29T15:26:06;23.50;99.90
44747;DHT22;30472;49.490;10.972;2022-07-29T15:28:31;23.40;99.90
44747;DHT22;30472;49.490;10.972;2022-07-29T15:30:57;23.30;99.90
44747;DHT22;30472;49.490;10.972;2022-07-29T15:33:23;23.20;99.90
44747;DHT22;30472;49.490;10.972;2022-07-29T15:35:49;23.10;99.90
44747;DHT22;30472;49.490;10.972;2022-07-29T15:38:15;22.80;99.90
44747;DHT22;30472;49.490;10.972;2022-07-29T15:40:41;22.50;99.90
44747;DHT22;30472;49.490;10.972;2022-07-29T15:43:08;22.40;99.90
44747;DHT22;30472;49.490;10.972;2022-07-29T15:45:36;22.10;99.90
44747;DHT22;30472;49.490;10.972;2022-07-29T15:48:03;21.90;99.90
44747;DHT22;30472;49.490;10.972;2022-07-29T15:50:29;21.80;99.90
44747;DHT22;30472;49.490;10.972;2022-07-29T15:52:54;21.60;99.90
44747;DHT22;30472;49.490;10.972;2022-07-29T15:55:20;21.60;99.90
44747;DHT22;30472;49.490;10.972;2022-07-29T15:57:46;21.40;99.90
44747;DHT22;30472;49.490;10.972;2022-07-29T16:00:11;21.20;99.90
44747;DHT22;30472;49.490;10.972;2022-07-29T16:02:38;21.20;99.90
44747;DHT22;30472;49.490;10.972;2022-07-29T16:05:04;21.10;99.90
44747;DHT22;30472;49.490;10.972;2022-07-29T16:07:29;20.90;99.90